Portada
METAR-TAF:

METAR-TAF

Aeropuertos :

Aeropuerto Internacional de Sunan

Pionyang, Corea del Norte

latitud: 39-02N, longitud: 125-47E, altitud: 36 m

METAR: falta

Hora: 03:49 (19:19 UTC)

Pronóstico

El informe se hizo hace 14 horas y 59 minutos, a las 04:20 UTC
Pronóstico válido del 18 a las 06 UTC al 19 a las 06 UTC
Viento 10 kt del oeste
Visibilidad: 6000 m
Temporalmente
del 18 a las 06 UTC al 18 a las 10 UTC
Nubes dispersas a una altura de 1000 ft
Cielo nuboso a una altura de 2700 ft
Temporalmente
del 18 a las 18 UTC al 18 a las 24 UTC
Visibilidad: 1000 m
neblina
Evolucionando progresivamente
del 19 a las 02 UTC al 19 a las 04 UTC
Visibilidad: 5000 m
Cielo nuboso a una altura de 2700 ft
neblina

TAF: ZKPY 180420Z 1806/1906 26005MPS 6000 NSC TEMPO 1806/1810 SCT010 BKN027 TEMPO 1818/1824 1000 BR BECMG 1902/1904 5000 BR BKN027 TX27/1806Z TN16/1821Z

Observaciones y pronósticos meteorológicos de más de 4000 aeropuertos (mensajes METAR y TAF).

Los puntos amarillos y rojos representan las estaciones disponibles.

Ponga el ratón en el punto deseado para ver el nombre de la estación.

Haga clic para ver las observaciones y los pronósticos meteorológicos.

Para cambiar el mapa : haga clic en los botones verdes con una cruz de color negro para hacer un zoom, en el botón verde con un guión para alejar o en las flechas verdes para mapas adyacentes.


METAR-TAF: